Time;durP1;ratioP1;P1;durP2;ratioP2;P2;SDS_P1;SDS_P2;PMS_P1;PMS_P2;Temp;Humidity;BMP_temperature;BMP_pressure;BME280_temperature;BME280_humidity;BME280_pressure;Samples;Min_cycle;Max_cycle;Signal;HPM_P1;HPM_P2
2022/08/18 00:02:24;;;;;;;16.38;7.97;;;20.00;99.90;;;;;;5061510;28;20378;-81
2022/08/18 00:04:50;;;;;;;13.77;8.13;;;19.90;99.90;;;;;;5047419;28;20045;-81
2022/08/18 00:07:25;;;;;;;17.35;8.93;;;20.10;99.90;;;;;;5065824;28;20510;-78
2022/08/18 00:09:51;;;;;;;13.13;8.02;;;21.00;99.90;;;;;;5063957;28;20075;-81
2022/08/18 00:12:32;;;;;;;15.98;8.98;;;20.60;99.90;;;;;;5046970;28;20043;-82
2022/08/18 00:15:02;;;;;;;27.13;8.80;;;20.40;99.90;;;;;;5034743;28;20071;-81
2022/08/18 00:17:29;;;;;;;18.27;8.68;;;21.00;99.90;;;;;;5051705;28;20166;-80
2022/08/18 00:19:56;;;;;;;21.65;9.40;;;20.20;99.90;;;;;;5044729;28;20060;-82
2022/08/18 00:22:22;;;;;;;16.92;8.57;;;20.90;99.90;;;;;;5070137;28;20060;-80
2022/08/18 00:24:53;;;;;;;16.33;9.13;;;20.90;99.90;;;;;;5061852;28;20047;-80
2022/08/18 00:27:22;;;;;;;23.85;9.07;;;20.90;99.90;;;;;;5051287;28;20044;-79
2022/08/18 00:29:48;;;;;;;20.67;9.63;;;20.80;99.90;;;;;;5068995;28;20049;-84
2022/08/18 00:32:17;;;;;;;20.23;9.95;;;20.40;99.90;;;;;;5038698;28;20033;-82
2022/08/18 00:34:42;;;;;;;20.45;9.60;;;20.60;99.90;;;;;;5067952;28;20045;-82
2022/08/18 00:37:08;;;;;;;19.58;8.73;;;20.10;99.90;;;;;;5048898;28;20040;-78
2022/08/18 00:39:34;;;;;;;15.15;7.80;;;21.10;99.90;;;;;;5027345;28;20045;-81
2022/08/18 00:42:12;;;;;;;21.63;8.13;;;20.70;99.90;;;;;;5064964;28;20357;-79
2022/08/18 00:44:38;;;;;;;12.43;7.63;;;20.70;99.90;;;;;;5071702;28;20148;-80
2022/08/18 00:47:04;;;;;;;12.48;7.28;;;20.90;99.90;;;;;;5056064;28;20484;-82
2022/08/18 00:49:29;;;;;;;20.95;7.93;;;20.50;99.90;;;;;;5060852;28;20039;-78
2022/08/18 00:51:56;;;;;;;16.17;7.72;;;20.60;99.90;;;;;;5054403;28;20067;-81
2022/08/18 00:54:29;;;;;;;11.48;7.68;;;20.60;99.90;;;;;;5044637;28;20044;-78
2022/08/18 00:56:59;;;;;;;19.98;7.55;;;20.80;99.90;;;;;;5054942;28;20052;-79
2022/08/18 00:59:37;;;;;;;19.45;7.90;;;20.30;99.90;;;;;;5050087;28;20037;-78
2022/08/18 01:02:05;;;;;;;18.00;7.95;;;20.70;99.90;;;;;;5069763;28;20048;-80
2022/08/18 01:04:56;;;;;;;17.15;7.55;;;19.70;99.90;;;;;;5039641;28;20553;-79
2022/08/18 01:07:30;;;;;;;15.90;7.22;;;20.20;99.90;;;;;;5071999;28;20497;-78
2022/08/18 01:09:59;;;;;;;;;;;19.70;99.90;;;;;;5065260;28;20143;-80
2022/08/18 01:12:26;;;;;;;14.45;7.53;;;19.90;99.90;;;;;;5065603;28;19923;-80
2022/08/18 01:14:53;;;;;;;14.95;7.18;;;19.60;99.90;;;;;;5044267;28;20572;-78
2022/08/18 01:23:08;;;;;;;19.45;7.45;;;20.40;99.90;;;;;;5048020;28;20393;-81
2022/08/18 01:28:22;;;;;;;20.60;7.82;;;20.70;99.90;;;;;;5072670;28;20119;-80
2022/08/18 01:30:51;;;;;;;17.52;7.32;;;20.00;99.90;;;;;;5071288;28;20040;-82
2022/08/18 01:33:17;;;;;;;16.73;7.35;;;20.60;99.90;;;;;;5053252;28;20124;-82
2022/08/18 01:35:49;;;;;;;27.90;8.40;;;19.90;99.90;;;;;;5048460;28;20074;-80
2022/08/18 01:38:17;;;;;;;19.52;8.05;;;19.60;99.90;;;;;;5053861;28;20110;-79
2022/08/18 01:40:44;;;;;;;15.77;8.32;;;19.60;99.90;;;;;;5051997;28;20564;-80
2022/08/18 01:43:10;;;;;;;18.08;7.72;;;20.50;99.90;;;;;;5050094;28;20120;-79
2022/08/18 01:45:36;;;;;;;14.68;7.90;;;20.20;99.90;;;;;;5050726;28;20066;-82
2022/08/18 01:48:03;;;;;;;24.40;9.27;;;20.90;99.90;;;;;;5041477;28;20061;-81
2022/08/18 01:50:30;;;;;;;17.10;8.13;;;20.00;99.90;;;;;;5038638;28;20033;-79
2022/08/18 01:52:56;;;;;;;17.67;8.98;;;20.00;99.90;;;;;;5066861;28;20543;-81
2022/08/18 01:55:21;;;;;;;21.48;8.43;;;20.20;99.90;;;;;;5051773;28;20136;-79
2022/08/18 01:57:47;;;;;;;24.30;8.07;;;19.90;99.90;;;;;;5033928;28;20043;-80
2022/08/18 02:00:16;;;;;;;18.02;8.93;;;21.00;99.90;;;;;;5067410;28;20075;-78
2022/08/18 02:02:42;;;;;;;13.30;8.25;;;20.50;99.90;;;;;;5061105;28;20701;-80
2022/08/18 02:05:18;;;;;;;20.98;8.80;;;21.00;99.90;;;;;;5037299;28;20037;-82
2022/08/18 02:07:44;;;;;;;18.45;8.88;;;20.20;99.90;;;;;;5053022;28;20036;-78
2022/08/18 02:10:10;;;;;;;20.02;8.65;;;20.60;99.90;;;;;;5053772;28;20047;-81
2022/08/18 02:12:37;;;;;;;18.15;8.55;;;20.00;99.90;;;;;;5070101;28;20039;-78
2022/08/18 02:15:04;;;;;;;23.65;8.90;;;20.40;99.90;;;;;;5033944;28;20057;-77
2022/08/18 02:17:39;;;;;;;23.90;8.45;;;21.20;99.90;;;;;;5049430;28;20119;-77
2022/08/18 02:20:07;;;;;;;21.88;8.82;;;20.20;99.90;;;;;;5068300;28;20036;-77
2022/08/18 02:22:33;;;;;;;21.33;8.57;;;21.00;99.90;;;;;;5055181;28;20458;-82
2022/08/18 02:24:59;;;;;;;23.30;8.30;;;20.30;99.90;;;;;;5050730;28;20037;-77
2022/08/18 02:27:26;;;;;;;20.65;9.20;;;21.10;99.90;;;;;;5063736;28;20085;-79
2022/08/18 02:29:52;;;;;;;19.58;8.63;;;20.50;99.90;;;;;;5046031;28;20068;-77
2022/08/18 02:32:18;;;;;;;20.20;8.77;;;21.20;99.90;;;;;;5066163;28;20098;-77
2022/08/18 02:34:44;;;;;;;22.65;9.15;;;20.30;99.90;;;;;;5050208;28;20037;-78
2022/08/18 02:37:10;;;;;;;23.77;9.43;;;20.20;99.90;;;;;;5035170;28;20390;-75
2022/08/18 02:39:36;;;;;;;22.50;8.63;;;20.30;99.90;;;;;;5058841;28;20370;-77
2022/08/18 02:42:06;;;;;;;19.48;8.98;;;20.80;99.90;;;;;;5068701;28;20049;-77
2022/08/18 02:44:32;;;;;;;28.20;8.65;;;20.40;99.90;;;;;;5035370;28;20068;-80
2022/08/18 02:46:58;;;;;;;23.63;8.77;;;21.20;99.90;;;;;;5036340;28;20037;-78
2022/08/18 02:49:24;;;;;;;22.67;9.52;;;20.80;99.90;;;;;;5028616;28;20446;-80
2022/08/18 02:51:52;;;;;;;21.58;8.95;;;20.20;99.90;;;;;;5058092;28;20112;-79
2022/08/18 02:54:19;;;;;;;20.88;8.73;;;20.40;99.90;;;;;;5043439;28;20079;-80
2022/08/18 02:56:46;;;;;;;27.70;9.43;;;21.10;99.90;;;;;;5066995;28;20041;-80
2022/08/18 02:59:14;;;;;;;26.63;9.77;;;20.30;99.90;;;;;;5056005;28;20056;-80
2022/08/18 03:01:44;;;;;;;18.83;8.55;;;20.30;99.90;;;;;;5050636;28;20997;-78
2022/08/18 03:04:14;;;;;;;26.10;8.57;;;21.10;99.90;;;;;;5073609;28;20041;-80
2022/08/18 03:06:40;;;;;;;22.70;8.40;;;20.30;99.90;;;;;;5040880;28;20447;-78
2022/08/18 03:09:09;;;;;;;20.17;8.68;;;20.40;99.90;;;;;;5058247;28;20115;-77
2022/08/18 03:11:36;;;;;;;24.10;8.43;;;20.60;99.90;;;;;;5043649;28;20040;-77
2022/08/18 03:14:04;;;;;;;16.48;8.35;;;21.30;99.90;;;;;;5043244;28;20120;-77
2022/08/18 03:16:31;;;;;;;20.17;8.57;;;20.80;99.90;;;;;;5049434;28;20037;-78
2022/08/18 03:18:59;;;;;;;19.55;7.82;;;20.50;99.90;;;;;;5058241;28;20032;-81
2022/08/18 03:21:30;;;;;;;24.15;7.65;;;20.80;99.90;;;;;;5058163;28;20127;-79
2022/08/18 03:23:57;;;;;;;15.02;7.57;;;21.30;99.90;;;;;;5064160;28;20075;-82
2022/08/18 03:26:23;;;;;;;16.35;7.60;;;21.40;99.90;;;;;;5067954;28;20033;-81
2022/08/18 03:28:51;;;;;;;20.95;7.32;;;20.60;99.90;;;;;;5044274;28;20036;-82
2022/08/18 03:31:19;;;;;;;17.70;9.32;;;20.60;99.90;;;;;;5047260;28;20503;-82
2022/08/18 03:33:46;;;;;;;18.85;7.68;;;21.20;99.90;;;;;;5064712;28;20037;-81
2022/08/18 03:36:15;;;;;;;23.55;7.97;;;21.30;99.90;;;;;;5050333;28;20074;-78
2022/08/18 03:38:42;;;;;;;15.23;7.80;;;20.60;99.90;;;;;;5051940;28;20097;-80
2022/08/18 03:41:10;;;;;;;17.58;7.78;;;20.80;99.90;;;;;;5061911;28;20442;-79
2022/08/18 03:43:36;;;;;;;17.17;7.90;;;20.60;99.90;;;;;;5049522;28;20389;-77
2022/08/18 03:46:08;;;;;;;19.65;7.70;;;21.20;99.90;;;;;;5069157;28;20052;-78
2022/08/18 03:48:38;;;;;;;17.73;7.38;;;20.80;99.90;;;;;;5051949;28;20040;-78
2022/08/18 03:51:12;;;;;;;17.83;8.15;;;20.70;99.90;;;;;;5049229;28;20048;-81
2022/08/18 03:53:38;;;;;;;29.95;8.40;;;21.40;99.90;;;;;;5064713;28;20040;-81
2022/08/18 03:56:14;;;;;;;15.43;6.47;;;21.40;99.90;;;;;;5052809;28;20068;-79
2022/08/18 03:58:41;;;;;;;17.35;7.25;;;20.60;99.90;;;;;;5052246;28;20036;-76
2022/08/18 04:01:06;;;;;;;16.10;7.22;;;21.50;99.90;;;;;;5029958;28;21047;-79
2022/08/18 04:03:32;;;;;;;22.83;7.53;;;20.50;99.90;;;;;;5031401;28;20115;-81
2022/08/18 04:05:58;;;;;;;16.50;7.07;;;20.70;99.90;;;;;;5031383;28;20029;-79
2022/08/18 04:08:24;;;;;;;20.08;7.53;;;20.70;99.90;;;;;;5015054;28;20541;-79
2022/08/18 04:10:50;;;;;;;13.15;7.07;;;21.50;99.90;;;;;;5034044;28;20033;-78
2022/08/18 04:13:16;;;;;;;19.00;7.60;;;21.60;99.90;;;;;;5047773;28;20108;-82
2022/08/18 04:15:42;;;;;;;18.77;7.68;;;21.60;99.90;;;;;;5035564;28;20120;-80
2022/08/18 04:18:07;;;;;;;14.48;7.57;;;20.60;99.90;;;;;;5051841;28;20037;-83
2022/08/18 04:20:34;;;;;;;20.13;8.48;;;21.40;99.90;;;;;;5052836;28;20043;-78
2022/08/18 04:23:00;;;;;;;19.17;7.90;;;20.80;99.90;;;;;;5048552;28;20044;-79
2022/08/18 04:25:26;;;;;;;21.65;7.85;;;20.80;99.90;;;;;;5043475;28;20041;-80
2022/08/18 04:27:56;;;;;;;19.30;8.02;;;21.50;99.90;;;;;;5043070;28;20037;-79
2022/08/18 04:30:23;;;;;;;13.02;8.02;;;20.60;99.90;;;;;;5029278;28;20045;-78
2022/08/18 04:32:50;;;;;;;15.23;8.15;;;20.80;99.90;;;;;;5043435;28;20044;-78
2022/08/18 04:35:15;;;;;;;16.23;7.45;;;21.40;99.90;;;;;;5036291;28;20059;-76
2022/08/18 04:37:42;;;;;;;12.45;8.18;;;21.40;99.90;;;;;;5067405;28;20048;-78
2022/08/18 04:40:10;;;;;;;22.17;8.32;;;21.30;99.90;;;;;;5052157;28;20528;-79
2022/08/18 04:42:36;;;;;;;12.80;8.30;;;21.50;99.90;;;;;;5064748;28;20049;-77
2022/08/18 04:45:02;;;;;;;14.55;8.10;;;21.60;99.90;;;;;;5052021;28;20055;-79
2022/08/18 04:47:27;;;;;;;18.02;8.25;;;20.70;99.90;;;;;;5034522;28;20044;-82
2022/08/18 04:49:53;;;;;;;18.10;8.77;;;20.70;99.90;;;;;;5043561;28;20365;-79
2022/08/18 04:55:05;;;;;;;17.30;7.97;;;21.10;99.90;;;;;;5052458;28;20056;-77
2022/08/18 04:57:32;;;;;;;13.20;8.55;;;20.70;99.90;;;;;;5066001;28;20047;-77
2022/08/18 04:59:58;;;;;;;19.88;9.20;;;21.10;99.90;;;;;;5028041;28;20167;-80
2022/08/18 05:02:24;;;;;;;15.15;8.00;;;21.20;99.90;;;;;;5049651;28;20045;-79
2022/08/18 05:04:50;;;;;;;12.38;8.25;;;20.80;99.90;;;;;;5068306;28;20039;-80
2022/08/18 05:07:21;;;;;;;14.50;7.55;;;20.90;99.90;;;;;;5068577;28;20028;-81
2022/08/18 05:09:47;;;;;;;13.50;6.85;;;21.00;99.90;;;;;;5049170;28;20174;-81
2022/08/18 05:12:14;;;;;;;17.67;7.95;;;21.00;99.90;;;;;;5032016;28;20652;-79
2022/08/18 05:14:43;;;;;;;17.13;7.45;;;20.90;99.90;;;;;;5066978;28;20484;-82
2022/08/18 05:17:09;;;;;;;12.50;7.55;;;21.20;99.90;;;;;;5044836;28;20052;-83
2022/08/18 05:19:35;;;;;;;17.23;8.13;;;21.30;99.90;;;;;;5059203;28;20362;-79
2022/08/18 05:22:02;;;;;;;13.50;7.13;;;21.30;99.90;;;;;;5033681;28;20553;-78
2022/08/18 05:24:30;;;;;;;13.88;8.00;;;21.40;99.90;;;;;;5064882;28;20049;-81
2022/08/18 05:26:56;;;;;;;11.63;7.45;;;21.50;99.90;;;;;;5055464;28;20410;-81
2022/08/18 05:29:22;;;;;;;20.30;7.75;;;20.90;99.90;;;;;;5053439;28;20036;-81
2022/08/18 05:31:50;;;;;;;10.98;7.15;;;21.90;99.90;;;;;;5054389;28;20044;-78
2022/08/18 05:34:20;;;;;;;10.80;7.50;;;21.80;99.90;;;;;;5045909;28;20036;-83
2022/08/18 05:36:51;;;;;;;13.82;7.53;;;21.00;99.90;;;;;;5065552;28;20051;-82
2022/08/18 05:39:17;;;;;;;12.65;7.15;;;21.60;99.90;;;;;;5066470;28;20039;-79
2022/08/18 05:41:54;;;;;;;13.07;7.03;;;22.00;99.90;;;;;;5052211;28;20107;-83
2022/08/18 05:44:29;;;;;;;16.17;7.45;;;21.00;99.90;;;;;;5058161;28;20052;-81
2022/08/18 05:46:58;;;;;;;14.93;7.25;;;21.10;99.90;;;;;;5053624;28;20045;-81
2022/08/18 05:49:25;;;;;;;13.07;7.45;;;21.60;99.90;;;;;;5050250;28;20063;-81
2022/08/18 05:51:56;;;;;;;13.65;7.97;;;21.30;99.90;;;;;;5048457;28;20037;-83
2022/08/18 05:57:12;;;;;;;16.80;8.10;;;21.20;99.90;;;;;;5071950;28;20078;-79
2022/08/18 05:59:41;;;;;;;13.65;7.68;;;22.00;99.90;;;;;;5046261;28;20116;-80
2022/08/18 06:02:16;;;;;;;11.65;7.80;;;22.20;99.90;;;;;;5052315;28;20040;-77
2022/08/18 06:05:03;;;;;;;;;;;21.70;99.90;;;;;;5067634;28;20048;-79
2022/08/18 06:07:39;;;;;;;11.20;7.22;;;21.40;99.90;;;;;;5060350;28;19942;-81
2022/08/18 06:10:07;;;;;;;12.57;6.60;;;22.00;99.90;;;;;;5064344;28;20040;-79
2022/08/18 06:12:48;;;;;;;12.52;6.82;;;22.40;99.90;;;;;;5060722;28;20037;-80
2022/08/18 06:15:48;;;;;;;13.13;6.18;;;22.10;99.90;;;;;;5050435;28;20047;-81
2022/08/18 06:18:43;;;;;;;12.52;6.47;;;21.50;99.90;;;;;;5067687;28;20048;-79
2022/08/18 06:21:21;;;;;;;13.77;6.93;;;22.40;99.90;;;;;;5070742;28;20060;-81
2022/08/18 06:24:20;;;;;;;12.68;6.22;;;21.70;99.90;;;;;;5057667;28;20048;-79
2022/08/18 06:27:23;;;;;;;12.85;5.90;;;22.20;99.90;;;;;;5038444;28;20888;-79
2022/08/18 06:30:04;;;;;;;15.05;7.03;;;22.30;99.90;;;;;;5042876;28;20033;-80
2022/08/18 06:32:52;;;;;;;12.73;6.80;;;21.70;99.90;;;;;;5066856;28;20075;-79
2022/08/18 06:35:50;;;;;;;13.85;6.22;;;22.20;99.90;;;;;;5050441;28;20093;-81
2022/08/18 06:38:40;;;;;;;15.15;6.03;;;21.90;99.90;;;;;;5070357;28;20040;-82
2022/08/18 06:41:16;;;;;;;16.85;6.57;;;21.70;99.90;;;;;;5070361;28;20059;-79
2022/08/18 06:44:03;;;;;;;12.15;6.15;;;22.50;99.90;;;;;;5070038;28;20860;-80
2022/08/18 06:47:02;;;;;;;13.73;6.28;;;22.00;99.90;;;;;;5054020;28;20074;-81
2022/08/18 06:49:38;;;;;;;10.45;6.30;;;21.70;99.90;;;;;;5036937;28;20045;-82
2022/08/18 06:52:28;;;;;;;12.52;6.63;;;22.10;99.90;;;;;;5034880;28;20043;-80
2022/08/18 06:54:57;;;;;;;10.18;5.63;;;21.70;99.90;;;;;;5051123;28;20099;-80
2022/08/18 06:57:27;;;;;;;16.58;5.57;;;21.30;99.90;;;;;;5034519;28;20511;-78
2022/08/18 07:00:16;;;;;;;15.10;5.38;;;22.00;99.90;;;;;;5043758;28;20041;-81
2022/08/18 07:03:10;;;;;;;12.77;5.22;;;21.50;99.90;;;;;;5077252;28;20049;-79
2022/08/18 07:05:37;;;;;;;11.50;5.43;;;21.10;99.90;;;;;;5041135;28;20117;-78
2022/08/18 07:08:12;;;;;;;11.48;4.68;;;21.30;99.90;;;;;;5066765;28;20040;-80
2022/08/18 07:10:44;;;;;;;13.20;5.18;;;21.80;99.90;;;;;;5070039;28;20036;-83
2022/08/18 07:13:26;;;;;;;15.10;5.35;;;21.10;99.90;;;;;;5054095;28;20131;-81
2022/08/18 07:15:54;;;;;;;9.52;4.53;;;21.20;99.90;;;;;;5068905;28;20044;-79
2022/08/18 07:18:28;;;;;;;14.38;5.47;;;21.90;99.90;;;;;;5068677;28;20393;-82
2022/08/18 07:21:01;;;;;;;11.18;4.68;;;21.90;99.90;;;;;;5051130;28;20047;-81
2022/08/18 07:23:37;;;;;;;8.77;4.30;;;21.10;99.90;;;;;;5035331;28;20106;-79
2022/08/18 07:26:11;;;;;;;11.35;3.78;;;21.50;99.90;;;;;;5063681;28;20048;-78
2022/08/18 07:28:42;;;;;;;9.52;4.13;;;22.10;99.90;;;;;;5067733;28;20049;-81
2022/08/18 07:31:26;;;;;;;8.60;3.53;;;21.70;99.90;;;;;;5071329;28;20041;-80
2022/08/18 07:34:35;;;;;;;12.13;3.88;;;21.70;99.90;;;;;;5034129;28;20036;-81
2022/08/18 07:37:31;;;;;;;12.88;4.10;;;21.20;99.90;;;;;;5063543;28;20246;-81
2022/08/18 07:40:09;;;;;;;9.68;4.18;;;21.30;99.90;;;;;;5051399;28;20033;-81
2022/08/18 07:42:47;;;;;;;12.13;3.35;;;21.50;99.90;;;;;;5051243;28;20044;-79
2022/08/18 07:45:18;;;;;;;8.80;3.10;;;21.90;99.90;;;;;;5043774;28;20046;-80
2022/08/18 07:48:19;;;;;;;13.88;3.85;;;21.20;99.90;;;;;;5070594;28;20040;-81
2022/08/18 07:50:51;;;;;;;12.10;3.00;;;21.70;99.90;;;;;;5049804;28;20045;-82
2022/08/18 07:53:35;;;;;;;10.15;3.13;;;21.20;99.90;;;;;;5061264;28;20044;-80
2022/08/18 07:56:23;;;;;;;9.30;3.05;;;21.20;99.90;;;;;;5043735;28;20457;-80
2022/08/18 07:59:00;;;;;;;5.55;3.35;;;21.60;99.90;;;;;;5052700;28;20076;-80
2022/08/18 08:01:45;;;;;;;10.40;4.57;;;21.80;99.90;;;;;;5059893;28;20107;-79
2022/08/18 08:04:32;;;;;;;8.15;3.13;;;22.30;99.90;;;;;;5046323;28;21034;-82
2022/08/18 08:07:13;;;;;;;9.95;3.00;;;21.60;99.90;;;;;;5048991;28;20037;-83
2022/08/18 08:10:00;;;;;;;8.32;3.15;;;22.10;99.90;;;;;;5052174;28;20033;-81
2022/08/18 08:13:04;;;;;;;8.27;2.40;;;22.10;99.90;;;;;;5053314;28;20051;-80
2022/08/18 08:16:08;;;;;;;7.70;3.08;;;21.40;99.90;;;;;;5053780;28;20072;-80
2022/08/18 08:18:34;;;;;;;5.18;2.40;;;21.50;99.90;;;;;;5004532;28;20049;-83
2022/08/18 08:21:13;;;;;;;7.43;2.95;;;21.90;99.90;;;;;;5053248;28;20052;-81
2022/08/18 08:24:01;;;;;;;9.60;2.63;;;21.70;99.90;;;;;;5069909;28;20049;-85
2022/08/18 08:27:08;;;;;;;8.63;2.85;;;21.60;99.90;;;;;;5052634;28;20452;-86
2022/08/18 08:29:33;;;;;;;6.55;2.40;;;22.30;99.90;;;;;;5068180;28;20033;-84
2022/08/18 08:32:24;;;;;;;6.28;2.40;;;21.70;99.90;;;;;;5035249;28;20044;-85
2022/08/18 08:35:03;;;;;;;5.13;2.42;;;21.70;99.90;;;;;;5047546;28;20404;-85
2022/08/18 08:37:37;;;;;;;5.28;2.50;;;21.50;99.90;;;;;;5054329;28;20123;-86
2022/08/18 08:40:20;;;;;;;5.47;2.42;;;21.50;99.90;;;;;;5051946;28;20051;-84
2022/08/18 08:42:55;;;;;;;5.53;2.40;;;21.60;99.90;;;;;;5050027;28;20049;-78
2022/08/18 08:45:31;;;;;;;4.75;2.35;;;21.50;99.90;;;;;;5043602;28;20159;-82
2022/08/18 08:48:08;;;;;;;6.20;2.60;;;21.90;99.90;;;;;;5045684;28;20109;-82
2022/08/18 08:50:41;;;;;;;4.18;2.63;;;21.90;99.90;;;;;;5065489;28;20389;-82
2022/08/18 08:53:20;;;;;;;8.68;2.67;;;21.30;99.90;;;;;;5043820;28;20029;-81
2022/08/18 08:55:52;;;;;;;6.63;2.42;;;21.10;99.90;;;;;;5042485;28;20037;-82
2022/08/18 08:58:41;;;;;;;5.25;2.15;;;21.60;99.90;;;;;;5041492;28;20389;-82
2022/08/18 09:01:19;;;;;;;5.35;2.38;;;21.60;99.90;;;;;;5050125;28;20041;-83
2022/08/18 09:04:08;;;;;;;4.60;2.28;;;21.10;99.90;;;;;;5048751;28;20485;-82
2022/08/18 09:06:52;;;;;;;6.57;2.40;;;21.50;99.90;;;;;;5061541;28;20056;-82
2022/08/18 09:09:49;;;;;;;6.07;2.93;;;21.70;99.90;;;;;;5053917;28;20063;-82
2022/08/18 09:12:52;;;;;;;4.82;2.22;;;21.60;99.90;;;;;;5064576;28;20613;-82
2022/08/18 09:15:36;;;;;;;5.97;3.00;;;21.50;99.90;;;;;;5036701;28;20043;-82
2022/08/18 09:18:44;;;;;;;3.00;2.70;;;21.70;99.90;;;;;;5037249;28;20048;-83
2022/08/18 09:21:19;;;;;;;8.30;2.75;;;22.10;99.90;;;;;;5066342;28;20045;-83
2022/08/18 09:23:52;;;;;;;4.68;2.35;;;21.80;99.90;;;;;;5057255;28;20123;-82
2022/08/18 09:26:32;;;;;;;4.32;2.30;;;21.70;99.90;;;;;;5056433;28;20123;-82
2022/08/18 09:29:12;;;;;;;5.32;2.28;;;21.60;99.90;;;;;;5043981;28;20028;-83
2022/08/18 09:31:37;;;;;;;5.97;2.45;;;21.80;99.90;;;;;;5074414;28;20041;-80
2022/08/18 09:34:32;;;;;;;7.85;3.67;;;21.80;99.90;;;;;;5048497;28;20461;-79
2022/08/18 09:37:24;;;;;;;6.15;2.70;;;21.80;99.90;;;;;;5071202;28;20476;-82
2022/08/18 09:42:56;;;;;;;5.05;2.05;;;21.70;99.90;;;;;;5070042;28;20178;-81
2022/08/18 09:45:31;;;;;;;5.85;2.20;;;21.80;99.90;;;;;;5034943;28;20041;-80
2022/08/18 09:48:12;;;;;;;3.80;2.50;;;21.60;99.90;;;;;;5052261;28;20037;-80
2022/08/18 09:50:51;;;;;;;2.90;1.90;;;21.50;99.90;;;;;;5052934;28;20633;-82
2022/08/18 09:53:46;;;;;;;3.15;1.90;;;21.60;99.90;;;;;;5068011;28;20492;-81
2022/08/18 09:56:13;;;;;;;6.22;2.15;;;21.50;99.90;;;;;;5056950;28;20094;-80
2022/08/18 09:59:01;;;;;;;4.50;2.60;;;21.80;99.90;;;;;;5049393;28;20557;-79
2022/08/18 10:01:33;;;;;;;3.90;2.10;;;22.10;99.90;;;;;;5059131;28;20749;-82
2022/08/18 10:04:14;;;;;;;7.20;2.20;;;22.30;99.90;;;;;;5050872;28;20044;-81
2022/08/18 10:06:45;;;;;;;7.85;2.33;;;22.20;99.90;;;;;;5054697;28;20083;-82
2022/08/18 10:09:35;;;;;;;5.18;2.22;;;22.30;99.90;;;;;;5052327;28;20040;-80
2022/08/18 10:12:32;;;;;;;3.80;2.15;;;22.30;99.90;;;;;;5050914;28;20036;-81
2022/08/18 10:15:25;;;;;;;4.65;2.10;;;22.60;99.90;;;;;;5072028;28;20044;-80
2022/08/18 10:18:27;;;;;;;3.78;1.80;;;22.30;99.90;;;;;;5051073;28;20501;-81
2022/08/18 10:20:58;;;;;;;4.80;2.65;;;22.00;99.90;;;;;;5052057;28;20051;-81
2022/08/18 10:23:55;;;;;;;4.15;2.08;;;22.10;99.90;;;;;;5052519;28;20045;-78
2022/08/18 10:26:29;;;;;;;4.82;1.98;;;21.80;99.90;;;;;;5052914;28;20040;-80
2022/08/18 10:29:07;;;;;;;7.72;2.28;;;22.00;99.90;;;;;;5047055;28;20429;-82
2022/08/18 10:32:16;;;;;;;4.70;2.20;;;22.00;99.90;;;;;;5038038;28;20033;-79
2022/08/18 10:34:51;;;;;;;6.07;2.58;;;21.70;99.90;;;;;;5034637;28;20182;-80
2022/08/18 10:37:41;;;;;;;6.22;2.17;;;21.60;99.90;;;;;;5051861;28;20131;-78
2022/08/18 10:40:11;;;;;;;7.53;2.50;;;21.70;99.90;;;;;;5049454;28;20045;-82
2022/08/18 10:42:58;;;;;;;4.68;2.00;;;21.50;99.90;;;;;;5041169;28;21715;-79
2022/08/18 10:45:34;;;;;;;8.00;2.22;;;21.50;99.90;;;;;;5039487;28;20068;-81
2022/08/18 10:48:21;;;;;;;3.53;2.20;;;21.40;99.90;;;;;;5052277;28;20572;-78
2022/08/18 10:50:57;;;;;;;3.90;2.03;;;21.50;99.90;;;;;;5040263;28;20369;-77
2022/08/18 10:53:48;;;;;;;6.35;2.67;;;21.40;99.90;;;;;;5052003;28;20053;-81
2022/08/18 10:56:16;;;;;;;4.60;2.10;;;21.50;99.90;;;;;;5067750;28;20048;-79
2022/08/18 10:59:12;;;;;;;5.82;2.33;;;21.50;99.90;;;;;;5066646;28;20040;-80
2022/08/18 11:01:57;;;;;;;7.30;2.83;;;21.50;99.90;;;;;;5070184;28;20365;-80
2022/08/18 11:04:33;;;;;;;6.38;2.28;;;21.60;99.90;;;;;;5050416;28;20120;-78
2022/08/18 11:07:07;;;;;;;4.65;2.20;;;21.70;99.90;;;;;;5050730;28;20048;-79
2022/08/18 11:09:33;;;;;;;6.55;2.65;;;21.60;99.90;;;;;;5035006;28;20464;-81
2022/08/18 11:12:02;;;;;;;6.80;2.53;;;21.60;99.90;;;;;;5061806;28;20060;-81
2022/08/18 11:14:53;;;;;;;6.40;2.33;;;21.50;99.90;;;;;;5066186;28;20068;-78
2022/08/18 11:17:24;;;;;;;5.13;2.10;;;21.40;99.90;;;;;;5050393;28;20431;-81
2022/08/18 11:19:51;;;;;;;4.88;2.28;;;21.60;99.90;;;;;;5078748;28;20392;-79
2022/08/18 11:22:26;;;;;;;4.88;2.15;;;21.60;99.90;;;;;;5067292;28;20110;-77
2022/08/18 11:24:52;;;;;;;5.32;2.20;;;21.50;99.90;;;;;;5053125;28;20079;-77
2022/08/18 11:27:21;;;;;;;3.58;2.20;;;21.70;99.90;;;;;;5069739;28;20068;-81
2022/08/18 11:29:47;;;;;;;6.88;2.72;;;21.60;99.90;;;;;;5063908;28;20044;-79
2022/08/18 11:32:37;;;;;;;4.40;2.55;;;21.60;99.90;;;;;;5070230;28;20437;-80
2022/08/18 11:35:09;;;;;;;5.13;2.42;;;21.80;99.90;;;;;;5050733;28;20053;-79
2022/08/18 11:37:38;;;;;;;4.50;2.10;;;21.60;99.90;;;;;;5032741;28;20052;-80
2022/08/18 11:40:11;;;;;;;5.00;2.25;;;21.60;99.90;;;;;;5070994;28;20175;-78
2022/08/18 11:42:40;;;;;;;3.42;1.77;;;21.60;99.90;;;;;;5052570;28;20051;-77
2022/08/18 11:45:12;;;;;;;3.65;2.05;;;21.90;99.90;;;;;;5051753;28;20182;-80
2022/08/18 11:47:59;;;;;;;4.10;2.25;;;22.20;99.90;;;;;;5052628;28;20366;-80
2022/08/18 11:50:31;;;;;;;4.72;2.10;;;22.60;99.90;;;;;;5063317;28;20040;-78
2022/08/18 11:53:17;;;;;;;4.25;2.10;;;22.80;99.90;;;;;;5036554;28;20040;-78
2022/08/18 11:55:43;;;;;;;3.92;2.10;;;22.80;99.90;;;;;;5069220;28;20098;-82
2022/08/18 11:58:09;;;;;;;3.47;2.08;;;22.60;99.90;;;;;;5068365;28;20045;-80
2022/08/18 12:00:35;;;;;;;8.55;2.03;;;22.60;99.90;;;;;;5047791;28;20040;-81
2022/08/18 12:03:24;;;;;;;3.83;2.05;;;22.50;99.90;;;;;;5068960;28;20131;-77
2022/08/18 12:05:53;;;;;;;3.20;1.90;;;22.40;99.90;;;;;;5068018;28;20094;-76
2022/08/18 12:08:41;;;;;;;3.47;1.85;;;22.40;99.90;;;;;;5050525;28;20515;-79
2022/08/18 12:11:16;;;;;;;4.30;1.90;;;22.60;99.90;;;;;;5062721;28;20109;-77
2022/08/18 12:13:55;;;;;;;6.50;2.80;;;22.50;99.90;;;;;;5068984;28;20036;-80
2022/08/18 12:16:35;;;;;;;3.03;2.00;;;22.50;99.90;;;;;;5067474;28;20572;-79
2022/08/18 12:19:01;;;;;;;2.08;1.60;;;22.40;99.90;;;;;;5068895;28;20901;-77
2022/08/18 12:21:27;;;;;;;2.88;1.98;;;22.30;99.90;;;;;;5033696;28;20088;-78
2022/08/18 12:23:52;;;;;;;4.25;1.90;;;22.60;99.90;;;;;;5066956;28;20526;-79
2022/08/18 12:26:19;;;;;;;3.97;2.13;;;22.90;99.90;;;;;;5051806;28;20044;-79
2022/08/18 12:28:45;;;;;;;2.83;1.88;;;23.30;99.90;;;;;;5069149;28;20044;-83
2022/08/18 12:31:10;;;;;;;3.60;1.80;;;23.70;99.90;;;;;;5051594;28;20051;-81
2022/08/18 12:33:36;;;;;;;3.55;1.90;;;23.60;99.90;;;;;;5033960;28;20037;-81
2022/08/18 12:36:04;;;;;;;3.35;2.00;;;23.70;99.90;;;;;;5047905;28;20055;-77
2022/08/18 12:38:31;;;;;;;6.28;2.15;;;23.40;99.90;;;;;;5055744;28;20631;-79
2022/08/18 12:40:58;;;;;;;3.05;1.73;;;23.40;99.90;;;;;;5072716;28;20059;-79
2022/08/18 12:43:24;;;;;;;4.00;2.03;;;22.90;99.90;;;;;;5044587;28;20040;-81
2022/08/18 12:45:50;;;;;;;3.05;1.85;;;22.90;99.90;;;;;;5056810;28;20078;-79
2022/08/18 12:48:16;;;;;;;4.03;2.20;;;22.40;99.90;;;;;;5060995;28;20171;-77
2022/08/18 12:50:42;;;;;;;4.07;2.00;;;22.40;99.90;;;;;;5054642;28;20499;-80
2022/08/18 12:53:09;;;;;;;3.03;1.70;;;22.30;99.90;;;;;;5072541;28;20040;-78
2022/08/18 12:55:40;;;;;;;4.10;2.08;;;22.50;99.90;;;;;;5071534;28;20045;-81
2022/08/18 12:58:06;;;;;;;3.35;2.10;;;22.60;99.90;;;;;;5067715;28;20377;-80
2022/08/18 13:00:32;;;;;;;2.78;1.92;;;23.00;99.90;;;;;;5054572;28;20090;-80
2022/08/18 13:02:58;;;;;;;2.67;2.00;;;23.40;99.90;;;;;;5055555;28;20540;-81
2022/08/18 13:05:24;;;;;;;2.60;1.85;;;23.20;99.90;;;;;;5053367;28;20047;-81
2022/08/18 13:07:50;;;;;;;3.15;1.77;;;23.40;99.90;;;;;;5070084;28;20068;-78
2022/08/18 13:10:16;;;;;;;3.80;1.80;;;23.20;99.90;;;;;;5056114;28;20142;-76
2022/08/18 13:12:41;;;;;;;4.13;1.85;;;23.10;99.90;;;;;;5033391;28;20590;-79
2022/08/18 13:15:08;;;;;;;3.45;1.90;;;23.50;99.90;;;;;;5010669;28;20117;-79
2022/08/18 13:17:36;;;;;;;2.33;1.90;;;23.80;99.90;;;;;;5033759;28;20049;-78
2022/08/18 13:20:07;;;;;;;2.60;1.70;;;24.40;99.90;;;;;;5068362;28;20050;-79
2022/08/18 13:22:32;;;;;;;6.30;2.20;;;24.30;99.90;;;;;;5052387;28;20511;-81
2022/08/18 13:24:59;;;;;;;3.05;1.85;;;25.00;99.90;;;;;;5038393;28;20037;-79
2022/08/18 13:27:25;;;;;;;4.50;1.85;;;25.10;99.90;;;;;;5059908;28;20098;-79
2022/08/18 13:29:50;;;;;;;2.67;1.90;;;25.10;99.90;;;;;;5033191;28;20032;-78
2022/08/18 13:32:17;;;;;;;3.05;2.03;;;25.20;99.90;;;;;;5025749;28;20041;-79